Time;durP1;ratioP1;P1;durP2;ratioP2;P2;SDS_P1;SDS_P2;PMS_P1;PMS_P2;Temp;Humidity;BMP_temperature;BMP_pressure;BME280_temperature;BME280_humidity;BME280_pressure;Samples;Min_cycle;Max_cycle;Signal;HPM_P1;HPM_P2
2022/05/19 00:04:55;;;;;;;16.40;13.45;;;;;;;17.65;95.82;101693.19;10318551;28;20120;-76
2022/05/19 00:09:55;;;;;;;17.17;13.75;;;;;;;17.66;95.67;101692.13;10344264;28;20521;-77
2022/05/19 00:14:57;;;;;;;17.50;12.93;;;;;;;17.66;96.98;101697.59;10325304;28;20101;-77
2022/05/19 00:19:58;;;;;;;19.23;12.68;;;;;;;17.79;94.67;101680.22;10342241;28;20077;-77
2022/05/19 00:24:58;;;;;;;18.30;12.05;;;;;;;17.80;96.19;101676.41;10342327;28;20107;-76
2022/05/19 00:29:59;;;;;;;23.05;13.50;;;;;;;17.75;95.66;101671.59;10342742;28;20030;-76
2022/05/19 00:35:00;;;;;;;15.80;13.85;;;;;;;17.70;97.12;101663.22;10341333;28;20038;-76
2022/05/19 00:40:00;;;;;;;24.27;13.73;;;;;;;17.74;95.94;101653.50;10324973;28;20037;-76
2022/05/19 00:45:00;;;;;;;23.38;13.32;;;;;;;17.72;95.23;101650.13;10340950;28;20382;-76
2022/05/19 00:50:01;;;;;;;20.90;15.45;;;;;;;17.69;95.08;101652.50;10339697;28;20069;-76
2022/05/19 00:55:17;;;;;;;19.10;16.83;;;;;;;17.61;96.39;101643.50;10323219;28;20030;-77
2022/05/19 01:00:19;;;;;;;19.88;15.85;;;;;;;17.60;97.30;101635.50;10324720;28;20030;-76
2022/05/19 01:05:26;;;;;;;26.30;16.63;;;;;;;17.63;97.75;101633.16;10340145;28;20466;-76
2022/05/19 01:10:27;;;;;;;18.33;14.55;;;;;;;17.67;97.01;101628.88;10340652;28;20419;-76
2022/05/19 01:15:27;;;;;;;18.63;15.43;;;;;;;17.69;96.21;101606.75;10338106;28;20058;-76
2022/05/19 01:20:28;;;;;;;33.38;16.58;;;;;;;17.66;97.48;101605.31;10339080;28;20042;-76
2022/05/19 01:25:51;;;;;;;17.60;15.88;;;;;;;17.66;99.08;101599.84;10322909;28;20177;-76
2022/05/19 01:30:51;;;;;;;21.33;16.02;;;;;;;17.72;98.03;101603.56;10338599;28;20462;-77
2022/05/19 01:35:52;;;;;;;26.08;17.95;;;;;;;17.80;99.68;101605.19;10321105;28;20117;-76
2022/05/19 01:41:18;;;;;;;30.27;18.60;;;;;;;17.93;99.59;101606.94;10305859;28;20149;-76
2022/05/19 01:46:30;;;;;;;32.15;16.70;;;;;;;18.01;99.53;101602.00;10336721;28;20378;-76
2022/05/19 01:51:45;;;;;;;18.73;15.93;;;;;;;18.11;96.85;101601.44;10320412;28;20042;-76
2022/05/19 01:56:48;;;;;;;21.77;16.15;;;;;;;18.19;97.47;101600.28;10338746;28;20034;-76
2022/05/19 02:01:58;;;;;;;20.48;16.55;;;;;;;18.29;96.06;101639.81;10338689;28;20042;-76
2022/05/19 02:07:04;;;;;;;19.63;16.52;;;;;;;18.41;93.15;101639.00;10320590;28;20034;-76
2022/05/19 02:12:05;;;;;;;21.15;16.70;;;;;;;18.34;92.35;101648.16;10336113;28;20050;-76
2022/05/19 02:17:08;;;;;;;25.70;19.98;;;;;;;18.24;97.36;101653.34;10338077;28;20038;-75
2022/05/19 02:22:10;;;;;;;25.90;19.73;;;;;;;17.99;97.01;101642.47;10336778;28;20030;-76
2022/05/19 02:27:37;;;;;;;25.02;20.60;;;;;;;17.85;100.00;101666.47;10319146;28;20430;-76
2022/05/19 02:32:37;;;;;;;31.98;21.45;;;;;;;17.88;100.00;101678.88;10324316;28;20041;-76
2022/05/19 02:37:38;;;;;;;34.63;25.80;;;;;;;17.91;100.00;101669.38;10345990;28;20037;-76
2022/05/19 02:42:39;;;;;;;33.90;27.02;;;;;;;17.93;100.00;101659.00;10327289;28;20030;-77
2022/05/19 02:47:39;;;;;;;33.28;25.35;;;;;;;17.95;100.00;101654.97;10325753;28;20042;-77
2022/05/19 02:52:59;;;;;;;;;;;;;;;;;;;;;
2022/05/19 02:58:24;;;;;;;31.15;24.70;;;;;;;18.07;100.00;101661.38;10344937;28;20347;-77
2022/05/19 03:03:40;;;;;;;30.65;24.38;;;;;;;18.08;100.00;101667.69;10342269;28;20064;-77
2022/05/19 03:09:15;;;;;;;27.75;20.95;;;;;;;18.07;100.00;101663.28;10318416;28;20101;-76
2022/05/19 03:14:15;;;;;;;21.63;19.20;;;;;;;18.02;100.00;101635.72;10317267;28;20045;-77
2022/05/19 03:19:57;;;;;;;21.75;17.23;;;;;;;18.02;100.00;101622.84;10317790;28;20473;-76
2022/05/19 03:25:34;;;;;;;17.55;11.80;;;;;;;18.07;100.00;101616.69;10306023;28;20526;-78
2022/05/19 03:30:41;;;;;;;12.18;11.00;;;;;;;18.19;100.00;101822.31;10317003;28;20041;-77
2022/05/19 03:36:23;;;;;;;;;;;;;;;18.13;100.00;101835.06;10317607;28;20084;-75
2022/05/19 03:42:02;;;;;;;20.27;17.90;;;;;;;17.94;100.00;101804.03;10340674;28;20269;-74
2022/05/19 03:47:03;;;;;;;21.92;18.70;;;;;;;17.87;100.00;101784.91;10333212;28;20043;-74
2022/05/19 03:52:05;;;;;;;23.77;17.88;;;;;;;17.91;100.00;101793.50;10317491;28;20034;-74
2022/05/19 03:57:06;;;;;;;24.17;17.02;;;;;;;17.91;100.00;101768.00;10332646;28;20055;-74
2022/05/19 04:02:07;;;;;;;20.33;18.13;;;;;;;17.91;100.00;101781.72;10333995;28;20101;-74
2022/05/19 04:07:07;;;;;;;19.65;15.32;;;;;;;17.82;100.00;101765.53;10333454;28;20084;-74
2022/05/19 04:12:08;;;;;;;16.05;14.18;;;;;;;17.72;100.00;101759.72;10316101;28;20037;-75
2022/05/19 04:17:08;;;;;;;25.52;15.63;;;;;;;17.62;100.00;101743.78;10334230;28;20030;-74
2022/05/19 04:22:09;;;;;;;11.32;10.18;;;;;;;17.51;100.00;101744.50;10334316;28;20073;-73
2022/05/19 04:27:11;;;;;;;19.63;12.00;;;;;;;17.38;100.00;101742.69;10316456;28;20058;-74
2022/05/19 04:32:12;;;;;;;13.35;11.13;;;;;;;17.31;100.00;101741.91;10334280;28;20068;-75
2022/05/19 04:37:12;;;;;;;23.38;12.38;;;;;;;17.25;100.00;101736.50;10332446;28;20050;-75
2022/05/19 04:42:13;;;;;;;12.38;11.05;;;;;;;17.23;100.00;101750.41;10333398;28;20045;-75
2022/05/19 04:47:13;;;;;;;10.52;9.50;;;;;;;17.13;100.00;101747.28;10316691;28;20511;-75
2022/05/19 04:52:13;;;;;;;13.80;9.43;;;;;;;17.05;100.00;101731.16;10334685;28;20043;-74
2022/05/19 04:57:14;;;;;;;17.33;10.57;;;;;;;17.11;100.00;101733.00;10340449;28;20093;-73
2022/05/19 05:02:14;;;;;;;22.52;14.00;;;;;;;17.19;100.00;101713.56;10322795;28;20462;-75
2022/05/19 05:07:15;;;;;;;16.83;12.88;;;;;;;17.22;100.00;101687.66;10339877;28;20037;-75
2022/05/19 05:12:15;;;;;;;18.23;11.40;;;;;;;17.31;100.00;101668.00;10339488;28;20034;-74
2022/05/19 05:17:16;;;;;;;13.27;11.98;;;;;;;17.33;100.00;101643.16;10340362;28;20458;-75
2022/05/19 05:22:16;;;;;;;17.80;15.00;;;;;;;17.23;100.00;101619.03;10338891;28;20039;-75
2022/05/19 05:27:17;;;;;;;16.65;12.20;;;;;;;17.21;100.00;101618.41;10339627;28;20061;-74
2022/05/19 05:32:18;;;;;;;14.50;12.38;;;;;;;17.37;100.00;101614.25;10341188;28;20053;-75
2022/05/19 05:37:18;;;;;;;14.82;13.27;;;;;;;17.50;100.00;101613.28;10339658;28;20042;-74
2022/05/19 05:42:19;;;;;;;17.63;15.52;;;;;;;17.57;100.00;101625.00;10339390;28;20041;-75
2022/05/19 05:47:19;;;;;;;14.50;13.20;;;;;;;17.62;100.00;101631.47;10338605;28;20038;-73
2022/05/19 05:52:20;;;;;;;14.52;12.98;;;;;;;17.72;100.00;101630.97;10339194;28;20093;-74
2022/05/19 05:57:21;;;;;;;16.02;14.32;;;;;;;17.96;100.00;101631.97;10338101;28;20121;-74
2022/05/19 06:02:21;;;;;;;17.50;13.80;;;;;;;18.13;100.00;101621.25;10321371;28;20043;-73
2022/05/19 06:07:22;;;;;;;16.50;11.88;;;;;;;18.25;100.00;101613.94;10338167;28;20030;-75
2022/05/19 06:12:24;;;;;;;13.95;12.57;;;;;;;18.34;100.00;101609.75;10338385;28;20165;-75
2022/05/19 06:17:24;;;;;;;19.27;15.07;;;;;;;18.45;100.00;101601.84;10320362;28;20026;-76
2022/05/19 06:22:25;;;;;;;16.70;15.20;;;;;;;18.65;100.00;101596.06;10318995;28;20045;-75
2022/05/19 06:27:26;;;;;;;13.98;12.65;;;;;;;18.79;100.00;101608.53;10337673;28;20046;-75
2022/05/19 06:32:26;;;;;;;20.75;14.25;;;;;;;18.93;100.00;101614.66;10336994;28;20369;-75
2022/05/19 06:37:27;;;;;;;14.80;13.45;;;;;;;19.21;100.00;101620.31;10320735;28;20070;-75
2022/05/19 06:42:28;;;;;;;23.27;15.52;;;;;;;20.19;100.00;101629.63;10336833;28;20049;-75
2022/05/19 06:47:28;;;;;;;14.65;13.18;;;;;;;20.87;100.00;101618.84;10336127;28;20116;-76
2022/05/19 06:52:29;;;;;;;14.52;13.20;;;;;;;21.17;100.00;101617.69;10336499;28;20484;-76
2022/05/19 06:57:31;;;;;;;12.63;11.55;;;;;;;21.72;100.00;101630.66;10318336;28;20504;-76
2022/05/19 07:02:33;;;;;;;21.42;13.38;;;;;;;21.39;100.00;101631.56;10335533;28;20037;-75
2022/05/19 07:07:33;;;;;;;15.73;13.82;;;;;;;21.29;100.00;101632.22;10336160;28;20069;-76
2022/05/19 07:12:33;;;;;;;14.13;12.60;;;;;;;21.14;100.00;101625.34;10318042;28;20104;-76
2022/05/19 07:17:37;;;;;;;15.55;13.05;;;;;;;20.93;100.00;101619.75;10338279;28;20042;-75
2022/05/19 07:22:37;;;;;;;14.98;13.48;;;;;;;21.17;100.00;101621.28;10320531;28;20026;-76
2022/05/19 07:27:38;;;;;;;16.25;13.63;;;;;;;;;;10337336;28;20379;-76
2022/05/19 07:32:39;;;;;;;17.73;14.30;;;;;;;21.43;100.00;101652.84;10336976;28;20070;-76
2022/05/19 07:37:40;;;;;;;22.25;13.63;;;;;;;21.41;100.00;101674.31;10302646;28;20077;-76
2022/05/19 07:42:40;;;;;;;16.65;13.48;;;;;;;21.32;100.00;101653.75;10333642;28;20109;-76
2022/05/19 07:47:41;;;;;;;15.38;13.82;;;;;;;21.12;100.00;101663.34;10333259;28;20091;-76
2022/05/19 07:52:41;;;;;;;25.95;14.70;;;;;;;21.23;100.00;101656.09;10333176;28;20042;-77
2022/05/19 07:57:43;;;;;;;15.23;13.75;;;;;;;22.03;100.00;101652.06;10316556;28;20096;-76
2022/05/19 08:02:43;;;;;;;12.77;11.02;;;;;;;23.11;100.00;101656.88;10316383;28;20483;-76
2022/05/19 08:07:44;;;;;;;11.68;10.65;;;;;;;23.36;100.00;101645.19;10317443;28;20038;-75
2022/05/19 08:18:15;;;;;;;10.50;9.57;;;;;;;24.28;100.00;101653.19;10332005;28;20030;-76
2022/05/19 08:23:18;;;;;;;10.32;9.43;;;;;;;24.55;100.00;101659.41;10333565;28;20045;-77
2022/05/19 08:28:19;;;;;;;12.93;11.30;;;;;;;25.06;100.00;101644.78;10323541;28;20054;-76
2022/05/19 08:33:19;;;;;;;12.10;9.55;;;;;;;25.31;100.00;101640.38;10325684;28;20046;-77
2022/05/19 08:38:20;;;;;;;11.48;9.23;;;;;;;25.04;100.00;101633.13;10346053;28;20039;-76
2022/05/19 08:43:23;;;;;;;13.05;8.85;;;;;;;26.43;100.00;101624.19;10325475;28;20034;-76
2022/05/19 08:48:24;;;;;;;10.52;8.65;;;;;;;27.08;100.00;101632.38;10323888;28;20026;-77
2022/05/19 08:53:36;;;;;;;11.18;9.38;;;;;;;26.69;100.00;101649.06;10340948;28;20046;-76
2022/05/19 08:58:59;;;;;;;8.00;7.30;;;;;;;27.47;100.00;101639.00;10340251;28;20038;-77
2022/05/19 09:04:08;;;;;;;8.48;7.68;;;;;;;27.95;100.00;101648.25;10339516;28;20125;-77
2022/05/19 09:09:11;;;;;;;8.02;7.22;;;;;;;28.32;100.00;101657.81;10340208;28;20040;-77
2022/05/19 09:14:21;;;;;;;7.22;6.63;;;;;;;28.87;100.00;101662.88;10340208;28;20489;-77
2022/05/19 09:19:25;;;;;;;8.38;5.63;;;;;;;28.79;100.00;101663.59;10337842;28;20041;-77
2022/05/19 09:24:26;;;;;;;8.15;6.20;;;;;;;27.36;100.00;101650.22;10321161;28;20030;-79
2022/05/19 09:29:57;;;;;;;6.10;5.60;;;;;;;27.65;100.00;101643.81;10322283;28;20121;-77
2022/05/19 09:35:11;;;;;;;6.10;5.60;;;;;;;27.77;100.00;101635.09;10304357;28;20073;-77
2022/05/19 09:40:14;;;;;;;5.10;4.38;;;;;;;28.39;100.00;101637.94;10305522;28;20033;-77
2022/05/19 09:45:15;;;;;;;5.38;4.78;;;;;;;27.66;86.96;101636.31;10337998;28;20030;-77
2022/05/19 09:50:17;;;;;;;10.48;5.13;;;;;;;28.14;100.00;101614.03;10337604;28;20129;-77
2022/05/19 09:55:20;;;;;;;6.63;5.30;;;;;;;27.61;100.00;101636.38;10320444;28;20470;-78
2022/05/19 10:00:32;;;;;;;5.93;5.45;;;;;;;26.65;100.00;101634.94;10336656;28;20038;-78
2022/05/19 10:05:46;;;;;;;4.85;4.45;;;;;;;26.07;100.00;101654.09;10337343;28;20038;-78
2022/05/19 10:11:00;;;;;;;9.45;4.93;;;;;;;25.93;100.00;101633.59;10320023;28;20359;-78
2022/05/19 10:16:24;;;;;;;5.80;5.30;;;;;;;26.71;100.00;101624.63;10319864;28;20034;-78
2022/05/19 10:21:56;;;;;;;5.28;4.07;;;;;;;26.77;100.00;101633.72;10319777;28;20038;-77
2022/05/19 10:32:47;;;;;;;11.13;5.32;;;;;;;25.26;100.00;101655.88;10336251;28;20046;-78
2022/05/19 10:37:56;;;;;;;5.18;4.78;;;;;;;24.07;100.00;101704.84;10319011;28;20100;-77
2022/05/19 10:43:23;;;;;;;6.63;5.85;;;;;;;23.32;100.00;101767.56;10336312;28;20117;-77
2022/05/19 10:48:40;;;;;;;12.35;9.18;;;;;;;22.11;100.00;101809.91;10334766;28;20061;-76
2022/05/19 10:54:04;;;;;;;12.85;9.70;;;;;;;20.83;100.00;101815.88;10336026;28;20104;-76
2022/05/19 10:59:22;;;;;;;15.13;11.55;;;;;;;20.23;100.00;101824.41;10333031;28;20088;-75
2022/05/19 11:04:57;;;;;;;19.45;13.40;;;;;;;19.93;100.00;101803.38;10319910;28;20054;-75
2022/05/19 11:10:51;;;;;;;16.67;13.02;;;;;;;19.70;100.00;101821.50;10335998;28;20030;-75
2022/05/19 11:16:25;;;;;;;16.48;10.95;;;;;;;19.28;100.00;101820.66;10326332;28;20050;-76
2022/05/19 11:21:38;;;;;;;9.80;7.90;;;;;;;19.00;100.00;101804.78;10316986;28;20034;-76
2022/05/19 11:26:45;;;;;;;17.75;9.15;;;;;;;18.75;100.00;101808.47;10303122;28;20077;-75
2022/05/19 11:31:56;;;;;;;11.52;7.03;;;;;;;18.55;100.00;101818.81;10335254;28;20034;-76
2022/05/19 11:37:14;;;;;;;9.45;6.18;;;;;;;18.39;100.00;101817.50;10336555;28;20038;-76
2022/05/19 11:42:50;;;;;;;7.10;6.50;;;;;;;18.30;100.00;101813.38;10321188;28;20447;-76
2022/05/19 11:58:51;;;;;;;15.40;7.03;;;;;;;18.16;100.00;101788.00;10338748;28;20042;-75
2022/05/19 12:04:15;;;;;;;15.25;7.18;;;;;;;18.07;100.00;101776.50;10327357;28;20432;-77
2022/05/19 12:09:43;;;;;;;27.10;8.35;;;;;;;17.93;100.00;101735.72;10325423;28;20097;-76
2022/05/19 12:14:49;;;;;;;11.35;7.95;;;;;;;17.84;100.00;101666.69;10325113;28;20032;-76
2022/05/19 12:19:56;;;;;;;16.08;8.65;;;;;;;17.79;100.00;101663.78;10326324;28;20027;-77
2022/05/19 12:25:16;;;;;;;12.45;9.18;;;;;;;17.82;100.00;101669.66;10341231;28;20069;-76
2022/05/19 12:35:51;;;;;;;13.10;9.73;;;;;;;18.57;100.00;101685.00;10341242;28;20437;-76
2022/05/19 12:40:56;;;;;;;17.35;9.25;;;;;;;18.84;100.00;101709.38;10308272;28;20121;-76
2022/05/19 12:45:59;;;;;;;12.55;7.53;;;;;;;19.05;100.00;101695.13;10323961;28;20478;-75
2022/05/19 12:51:12;;;;;;;9.45;8.00;;;;;;;21.19;100.00;101700.91;10325046;28;20034;-76
2022/05/19 12:56:40;;;;;;;7.07;6.45;;;;;;;22.26;100.00;101688.78;10324337;28;20023;-76
2022/05/19 13:01:47;;;;;;;;;;;;;;;23.61;100.00;101687.91;10323778;28;20115;-76
2022/05/19 13:06:54;;;;;;;;;;;;;;;24.88;100.00;101711.81;10340864;28;19913;-77
2022/05/19 13:11:56;;;;;;;6.15;5.30;;;;;;;25.37;100.00;101701.09;10321428;28;19923;-77
2022/05/19 13:16:57;;;;;;;4.80;4.47;;;;;;;25.47;100.00;101719.66;10324141;28;20038;-76
2022/05/19 13:22:06;;;;;;;6.63;4.93;;;;;;;25.97;100.00;101715.16;10339089;28;20161;-77
2022/05/19 13:32:33;;;;;;;3.22;3.03;;;;;;;26.34;100.00;101738.94;10324118;28;20030;-77
2022/05/19 13:37:36;;;;;;;5.30;2.65;;;;;;;26.49;100.00;101750.03;10337165;28;20045;-77
2022/05/19 13:42:36;;;;;;;3.47;3.25;;;;;;;26.91;100.00;101745.94;10321065;28;20449;-77
2022/05/19 13:47:37;;;;;;;7.88;4.18;;;;;;;26.29;100.00;101756.47;10337159;28;20113;-77
2022/05/19 13:52:40;;;;;;;5.15;4.18;;;;;;;25.71;100.00;101761.53;10337343;28;20542;-77
2022/05/19 13:57:41;;;;;;;4.13;3.15;;;;;;;25.03;100.00;101767.28;10338297;28;20038;-77
2022/05/19 14:02:41;;;;;;;3.08;2.17;;;;;;;23.90;100.00;101801.84;10321160;28;20054;-77
2022/05/19 14:07:45;;;;;;;4.65;4.25;;;;;;;24.34;100.00;101807.13;10320874;28;20070;-77
2022/05/19 14:12:51;;;;;;;9.95;2.58;;;;;;;23.48;100.00;101826.59;10337148;28;20054;-77
2022/05/19 14:18:02;;;;;;;3.30;3.00;;;;;;;22.24;100.00;101827.00;10303740;28;20420;-76
2022/05/19 14:23:06;;;;;;;10.48;3.78;;;;;;;21.82;100.00;101835.69;10334644;28;20026;-77
2022/05/19 14:28:28;;;;;;;5.85;2.95;;;;;;;21.08;100.00;101851.34;10303702;28;20109;-77
2022/05/19 14:33:56;;;;;;;6.40;4.75;;;;;;;20.57;100.00;101880.53;10306223;28;20038;-77
2022/05/19 14:39:11;;;;;;;9.90;3.85;;;;;;;20.41;100.00;101874.66;10305069;28;20103;-78
2022/05/19 14:44:14;;;;;;;5.35;4.40;;;;;;;20.48;100.00;101888.28;10336524;28;20054;-77
2022/05/19 14:49:16;;;;;;;6.63;4.93;;;;;;;20.47;100.00;101894.88;10319878;28;20035;-77
2022/05/19 14:54:22;;;;;;;8.57;4.80;;;;;;;20.55;100.00;101900.06;10319263;28;20062;-77
2022/05/19 14:59:46;;;;;;;5.93;4.32;;;;;;;20.56;100.00;101909.97;10302122;28;20065;-77
2022/05/19 15:04:47;;;;;;;8.73;4.70;;;;;;;20.59;100.00;101915.00;10319585;28;20030;-77
2022/05/19 15:09:48;;;;;;;11.00;4.80;;;;;;;20.70;100.00;101906.97;10317981;28;20069;-77
2022/05/19 15:14:50;;;;;;;6.05;4.32;;;;;;;20.92;100.00;101912.69;10319092;28;20117;-77
2022/05/19 15:19:52;;;;;;;5.65;5.25;;;;;;;20.85;100.00;101923.84;10334628;28;20128;-78
2022/05/19 15:24:53;;;;;;;9.65;5.57;;;;;;;20.59;100.00;101937.03;10300702;28;20034;-77
2022/05/19 15:29:53;;;;;;;7.88;6.25;;;;;;;20.35;100.00;101947.13;10318241;28;20085;-77
2022/05/19 15:34:55;;;;;;;10.85;9.32;;;;;;;20.23;100.00;101953.69;10316947;28;20061;-77
2022/05/19 15:39:56;;;;;;;13.88;8.73;;;;;;;20.15;100.00;101966.72;10333443;28;20173;-77
2022/05/19 15:44:56;;;;;;;11.63;8.45;;;;;;;19.96;100.00;101971.44;10332988;28;20109;-77
2022/05/19 15:49:57;;;;;;;15.10;8.25;;;;;;;19.50;100.00;101991.31;10301413;28;20137;-77
2022/05/19 15:54:58;;;;;;;14.25;9.48;;;;;;;19.25;100.00;102003.19;10316870;28;20038;-77
2022/05/19 15:59:59;;;;;;;17.20;10.40;;;;;;;19.24;100.00;101993.28;10317656;28;20381;-77
2022/05/19 16:04:59;;;;;;;14.20;10.40;;;;;;;19.33;100.00;102009.44;10300552;28;20041;-77
2022/05/19 16:10:01;;;;;;;22.60;8.82;;;;;;;19.11;100.00;102009.88;10301273;28;20041;-77
2022/05/19 16:15:06;;;;;;;13.93;8.10;;;;;;;19.00;100.00;102019.72;10300066;28;20047;-76
2022/05/19 16:20:09;;;;;;;22.70;10.43;;;;;;;18.91;100.00;102031.22;10318143;28;20041;-77
2022/05/19 16:25:18;;;;;;;17.48;12.07;;;;;;;18.81;100.00;102035.31;10335572;28;20030;-77
2022/05/19 16:30:19;;;;;;;13.75;9.85;;;;;;;18.95;100.00;102030.56;10337225;28;20042;-77
2022/05/19 16:35:19;;;;;;;31.02;10.13;;;;;;;18.88;100.00;102042.66;10304417;28;20049;-77
2022/05/19 16:40:20;;;;;;;24.15;11.50;;;;;;;18.66;100.00;102051.25;10318085;28;20041;-77
2022/05/19 16:45:23;;;;;;;13.73;9.48;;;;;;;18.67;100.00;102061.16;10332298;28;20033;-77
2022/05/19 16:50:25;;;;;;;21.75;11.27;;;;;;;18.61;100.00;102053.00;10322828;28;20034;-77
2022/05/19 17:00:49;;;;;;;21.10;11.02;;;;;;;18.07;100.00;102055.25;10339557;28;20062;-77
2022/05/19 17:05:54;;;;;;;19.33;8.85;;;;;;;17.89;100.00;102065.00;10340997;28;20040;-77
2022/05/19 17:10:56;;;;;;;13.00;8.75;;;;;;;17.73;100.00;102060.00;10323799;28;20085;-76
2022/05/19 17:15:58;;;;;;;14.02;9.20;;;;;;;17.55;100.00;102065.31;10323151;28;20022;-76
2022/05/19 17:21:01;;;;;;;12.98;8.32;;;;;;;17.37;100.00;102064.13;10306153;28;20042;-77
2022/05/19 17:26:01;;;;;;;16.83;8.40;;;;;;;17.33;100.00;102053.81;10341400;28;20058;-77
2022/05/19 17:31:03;;;;;;;14.05;7.97;;;;;;;17.21;100.00;102056.34;10308290;28;20042;-77
2022/05/19 17:36:05;;;;;;;20.55;7.47;;;;;;;17.05;100.00;102063.13;10321551;28;20042;-77
2022/05/19 17:41:06;;;;;;;21.08;6.95;;;;;;;16.97;100.00;102068.78;10337853;28;20228;-77
2022/05/19 17:46:07;;;;;;;14.70;6.88;;;;;;;16.79;100.00;102074.91;10321985;28;20022;-77
2022/05/19 17:51:08;;;;;;;9.82;5.03;;;;;;;16.72;100.00;102085.00;10321096;28;20034;-77
2022/05/19 17:56:12;;;;;;;11.85;5.15;;;;;;;16.60;100.00;102084.75;10338482;28;20026;-77
2022/05/19 18:01:13;;;;;;;13.70;5.88;;;;;;;16.39;100.00;102090.41;10305408;28;20077;-76
2022/05/19 18:06:14;;;;;;;13.52;4.93;;;;;;;16.20;100.00;102090.13;10320519;28;20076;-76
2022/05/19 18:11:16;;;;;;;11.77;4.78;;;;;;;16.09;100.00;102096.22;10336464;28;20042;-77
2022/05/19 18:21:36;;;;;;;21.52;10.82;;;;;;;15.81;100.00;102120.88;10322039;28;20494;-77
2022/05/19 18:26:37;;;;;;;18.85;9.65;;;;;;;15.67;100.00;102113.69;10303628;28;20054;-76
2022/05/19 18:31:40;;;;;;;20.58;6.28;;;;;;;15.59;100.00;102120.94;10319492;28;20125;-77
2022/05/19 18:36:41;;;;;;;10.30;5.72;;;;;;;15.50;100.00;102133.06;10303407;28;20463;-77
2022/05/19 18:47:00;;;;;;;6.20;4.13;;;;;;;15.35;100.00;102132.34;10336339;28;20043;-75
2022/05/19 18:52:04;;;;;;;7.50;3.97;;;;;;;15.22;100.00;102138.56;10303062;28;20038;-75
2022/05/19 18:57:05;;;;;;;9.75;3.45;;;;;;;15.14;100.00;102146.88;10336196;28;20041;-74
2022/05/19 19:02:07;;;;;;;10.45;3.20;;;;;;;15.03;100.00;102140.06;10336111;28;20429;-74
2022/05/19 19:07:09;;;;;;;6.55;4.35;;;;;;;14.86;100.00;102141.38;10335729;28;20042;-74
2022/05/19 19:12:10;;;;;;;4.00;3.55;;;;;;;14.71;100.00;102154.22;10334121;28;20081;-74
2022/05/19 19:17:11;;;;;;;4.10;3.40;;;;;;;14.59;100.00;102170.28;10333634;28;20193;-74
2022/05/19 19:22:11;;;;;;;15.55;5.78;;;;;;;14.50;100.00;102183.13;10335148;28;20039;-74
2022/05/19 19:27:13;;;;;;;5.63;5.13;;;;;;;14.43;100.00;102182.22;10318860;28;20054;-74
2022/05/19 19:32:14;;;;;;;8.73;5.30;;;;;;;14.34;100.00;102192.38;10333879;28;20061;-74
2022/05/19 19:37:15;;;;;;;3.88;3.50;;;;;;;14.27;100.00;102198.78;10334832;28;20030;-74
2022/05/19 19:42:15;;;;;;;4.90;4.47;;;;;;;14.16;100.00;102195.50;10316486;28;20069;-74
2022/05/19 19:47:16;;;;;;;7.72;4.45;;;;;;;14.12;100.00;102199.63;10316910;28;20030;-73
2022/05/19 19:52:16;;;;;;;8.93;5.53;;;;;;;14.04;100.00;102207.94;10334964;28;20046;-73
2022/05/19 19:57:16;;;;;;;10.15;5.28;;;;;;;13.95;100.00;102217.22;10316406;28;20119;-77
2022/05/19 20:02:17;;;;;;;15.52;6.30;;;;;;;13.87;100.00;102211.84;10316883;28;20030;-76
2022/05/19 20:07:18;;;;;;;4.43;4.03;;;;;;;13.83;100.00;102222.28;10334586;28;20101;-76
2022/05/19 20:12:18;;;;;;;7.85;5.55;;;;;;;13.76;100.00;102215.91;10334400;28;20065;-76
2022/05/19 20:17:18;;;;;;;5.63;5.03;;;;;;;13.71;100.00;102226.47;10300387;28;20177;-76
2022/05/19 20:22:19;;;;;;;7.30;5.68;;;;;;;13.64;100.00;102215.50;10337123;28;20034;-77
2022/05/19 20:27:19;;;;;;;9.30;6.45;;;;;;;13.56;100.00;102206.56;10331117;28;20090;-77
2022/05/19 20:32:20;;;;;;;24.13;6.82;;;;;;;13.51;100.00;102206.28;10335053;28;20042;-76
2022/05/19 20:37:20;;;;;;;8.10;6.00;;;;;;;13.44;100.00;102204.31;10344832;28;20449;-77
2022/05/19 20:42:21;;;;;;;15.45;8.07;;;;;;;13.42;100.00;102210.94;10343504;28;20133;-76
2022/05/19 20:47:22;;;;;;;13.40;7.65;;;;;;;13.38;100.00;102209.63;10324737;28;20034;-76
2022/05/19 20:52:24;;;;;;;12.10;7.45;;;;;;;13.35;100.00;102210.00;10327776;28;20479;-76
2022/05/19 20:57:25;;;;;;;12.57;8.60;;;;;;;13.32;100.00;102213.09;10330343;28;20065;-76
2022/05/19 21:02:25;;;;;;;11.82;7.88;;;;;;;13.30;100.00;102213.25;10346134;28;20116;-76
2022/05/19 21:07:27;;;;;;;17.98;9.10;;;;;;;13.28;100.00;102219.94;10341781;28;20129;-76
2022/05/19 21:12:29;;;;;;;12.57;8.07;;;;;;;13.25;100.00;102227.44;10340620;28;20044;-76
2022/05/19 21:17:29;;;;;;;26.92;9.30;;;;;;;13.22;100.00;102219.59;10323243;28;20046;-76
2022/05/19 21:22:30;;;;;;;11.27;6.82;;;;;;;13.20;100.00;102224.34;10307294;28;20034;-76
2022/05/19 21:27:30;;;;;;;12.25;9.30;;;;;;;13.13;100.00;102217.13;10340126;28;20093;-76
2022/05/19 21:32:31;;;;;;;10.32;8.07;;;;;;;13.08;100.00;102225.84;10337540;28;20054;-76
2022/05/19 21:37:31;;;;;;;14.50;9.98;;;;;;;13.03;100.00;102218.22;10339102;28;20371;-76
2022/05/19 21:42:32;;;;;;;17.73;9.75;;;;;;;12.97;100.00;102213.50;10338898;28;20488;-75
2022/05/19 21:47:33;;;;;;;12.30;10.23;;;;;;;12.96;100.00;102219.13;10321428;28;20092;-76
2022/05/19 21:57:54;;;;;;;18.60;11.63;;;;;;;12.92;100.00;102217.78;10338550;28;20402;-76
2022/05/19 22:02:59;;;;;;;19.85;11.85;;;;;;;12.91;100.00;102221.53;10321097;28;20038;-76
2022/05/19 22:08:00;;;;;;;16.17;10.75;;;;;;;12.84;100.00;102226.00;10321047;28;20394;-76
2022/05/19 22:13:00;;;;;;;17.13;11.18;;;;;;;12.87;100.00;102236.53;10303583;28;20049;-76
2022/05/19 22:18:03;;;;;;;17.00;11.43;;;;;;;12.89;100.00;102234.44;10337397;28;20485;-76
2022/05/19 22:23:04;;;;;;;12.90;11.02;;;;;;;12.84;100.00;102235.00;10319683;28;20433;-76
2022/05/19 22:28:04;;;;;;;19.85;11.32;;;;;;;12.76;100.00;102232.31;10319167;28;20054;-76
2022/05/19 22:33:05;;;;;;;18.88;11.80;;;;;;;12.70;100.00;102224.88;10335827;28;20038;-76
2022/05/19 22:38:05;;;;;;;21.70;12.45;;;;;;;12.70;100.00;102228.47;10337312;28;20048;-76
2022/05/19 22:43:06;;;;;;;17.20;12.88;;;;;;;12.70;100.00;102223.03;10318474;28;20398;-76
2022/05/19 22:48:06;;;;;;;14.05;12.57;;;;;;;12.63;100.00;102219.31;10320091;28;20054;-76
2022/05/19 22:53:11;;;;;;;18.13;13.60;;;;;;;12.61;100.00;102213.25;10302558;28;20037;-76
2022/05/19 22:58:12;;;;;;;16.77;13.38;;;;;;;12.62;100.00;102205.94;10337191;28;20359;-76
2022/05/19 23:03:12;;;;;;;19.45;14.95;;;;;;;12.62;100.00;102204.06;10318374;28;20034;-76
2022/05/19 23:08:13;;;;;;;17.58;14.48;;;;;;;12.58;100.00;102205.44;10335516;28;20536;-76
2022/05/19 23:13:13;;;;;;;28.02;15.07;;;;;;;12.46;100.00;102218.56;10334845;28;20367;-76
2022/05/19 23:18:14;;;;;;;23.08;16.08;;;;;;;12.37;100.00;102216.06;10334221;28;20038;-76
2022/05/19 23:23:14;;;;;;;25.42;16.08;;;;;;;12.37;100.00;102221.50;10335481;28;20462;-76
2022/05/19 23:28:14;;;;;;;28.92;16.65;;;;;;;12.34;100.00;102218.13;10338558;28;20051;-76
2022/05/19 23:33:22;;;;;;;28.63;17.85;;;;;;;12.34;100.00;102223.53;10334938;28;20049;-76
2022/05/19 23:38:23;;;;;;;23.98;19.40;;;;;;;12.29;100.00;102228.69;10319704;28;20038;-76
2022/05/19 23:43:24;;;;;;;25.05;17.05;;;;;;;12.25;100.00;102219.19;10317104;28;20116;-76
2022/05/19 23:48:25;;;;;;;26.98;17.27;;;;;;;12.28;100.00;102224.28;10334322;28;20389;-76
2022/05/19 23:53:25;;;;;;;28.23;21.52;;;;;;;12.36;100.00;102219.81;10334257;28;20030;-76